Norse Mersey — IBEN — position and weather

sailwx.info

Track history (hours):
 
Tides and Currents Weather Stations Pressure Air Temp Water Temp Dewpoint Dewpoint Depression Visibility Wind Speed Wind Dir Waves Ship Positions

Norse Mersey

Operator: Norse Merchant Ferries

Last reported at 2018-Nov-10 00:27 UTC. Time now 2018-Nov-13 06:59 UTC.
Position N 40°24' E 013°59'.

Length 175 m; draft 6 m.

Type: Ship (hazmat cat A). MMSI: 247026000.

Date/timePositionNaut miles runAvg speedWind from/ knotsBaromVisibWave heightAir tempDewpointWater temp
2018-Nov-10 00:27N 40°24' E 013°59'615.5
2018-Nov-10 00:02N 40°26' E 014°07'816.2
2018-Nov-09 23:32N 40°29' E 014°17'816.4
2018-Nov-09 23:02N 40°33' E 014°27'815.4
2018-Nov-09 22:32N 40°35' E 014°36'4 0.3
2018-Nov-09 06:53N 40°37' E 014°42'515.6
2018-Nov-09 06:32N 40°32' E 014°37'815.7
2018-Nov-09 06:02N 40°26' E 014°32'713.0
2018-Nov-09 05:32N 40°20' E 014°29'713.4
2018-Nov-09 05:02N 40°14' E 014°33'814.4
2018-Nov-09 04:31N 40°06' E 014°30'29 0.6
2018-Nov-07 08:11N 40°24' E 014°01'316.1
2018-Nov-07 08:00N 40°25' E 014°04'816.2
2018-Nov-07 07:31N 40°28' E 014°14'816.7
2018-Nov-07 07:02N 40°31' E 014°23'816.7
2018-Nov-07 06:32N 40°35' E 014°33'2 0.1
2018-Nov-05 23:30N 40°33' E 014°33'715.7
2018-Nov-05 23:03N 40°29' E 014°25'115.2
2018-Nov-05 23:01N 40°28' E 014°25'815.5
2018-Nov-05 22:30N 40°24' E 014°16'715.8
2018-Nov-05 22:03N 40°20' E 014°09'216.1
2018-Nov-05 21:57N 40°19' E 014°07'1115.9
2018-Nov-05 21:17N 40°14' E 013°54'415.9
2018-Nov-05 21:03N 40°12' E 013°50'16 0.4
2018-Nov-04 01:13N 40°25' E 014°03'316.5
2018-Nov-04 01:03N 40°26' E 014°06'116.8
2018-Nov-04 01:01N 40°26' E 014°07'816.6
2018-Nov-04 00:31N 40°29' E 014°17'716.3
2018-Nov-04 00:03N 40°32' E 014°26'116.2
2018-Nov-04 00:00N 40°33' E 014°27'815.9
2018-Nov-03 23:31N 40°36' E 014°37'3 0.3
2018-Nov-03 13:49N 40°37' E 014°41'516.3
2018-Nov-03 13:30N 40°34' E 014°35'715.9
2018-Nov-03 13:03N 40°30' E 014°27'115.6
2018-Nov-03 13:00N 40°30' E 014°26'815.4
2018-Nov-03 12:30N 40°26' E 014°18'1015.2
2018-Nov-03 11:52N 40°21' E 014°07'6 0.1
2018-Nov-01 20:44N 40°25' E 014°02'416.2
2018-Nov-01 20:30N 40°26' E 014°07'716.5
2018-Nov-01 20:03N 40°29' E 014°16'116.8
2018-Nov-01 20:00N 40°29' E 014°17'816.5
2018-Nov-01 19:30N 40°33' E 014°27'715.7
2018-Nov-01 19:02N 40°35' E 014°36'115.5
2018-Nov-01 19:00N 40°36' E 014°36'3 0.3
2018-Nov-01 08:25N 40°36' E 014°40'515.1
2018-Nov-01 08:03N 40°33' E 014°34'115.0
2018-Nov-01 08:00N 40°32' E 014°33'714.8
2018-Nov-01 07:30N 40°28' E 014°26'614.5
2018-Nov-01 07:04N 40°24' E 014°19'114.2
2018-Nov-01 07:00N 40°24' E 014°18'714.3
2018-Nov-01 06:30N 40°19' E 014°11'  
Track history (hours):
 
Tides and Currents Weather Stations Pressure Air Temp Water Temp Dewpoint Dewpoint Depression Visibility Wind Speed Wind Dir Waves Ship Positions

Norse Mersey

Operator: Norse Merchant Ferries

Last reported at 2018-Nov-10 00:27 UTC. Time now 2018-Nov-13 06:59 UTC.
Position N 40°24' E 013°59'.

Length 175 m; draft 6 m.

Type: Ship (hazmat cat A). MMSI: 247026000.

Date/timePositionNaut miles runAvg speedWind from/ knotsBaromVisibWave heightAir tempDewpointWater temp
2018-Nov-10 00:27N 40°24' E 013°59'615.5
2018-Nov-10 00:02N 40°26' E 014°07'816.2
2018-Nov-09 23:32N 40°29' E 014°17'816.4
2018-Nov-09 23:02N 40°33' E 014°27'815.4
2018-Nov-09 22:32N 40°35' E 014°36'4 0.3
2018-Nov-09 06:53N 40°37' E 014°42'515.6
2018-Nov-09 06:32N 40°32' E 014°37'815.7
2018-Nov-09 06:02N 40°26' E 014°32'713.0
2018-Nov-09 05:32N 40°20' E 014°29'713.4
2018-Nov-09 05:02N 40°14' E 014°33'814.4
2018-Nov-09 04:31N 40°06' E 014°30'29 0.6
2018-Nov-07 08:11N 40°24' E 014°01'316.1
2018-Nov-07 08:00N 40°25' E 014°04'816.2
2018-Nov-07 07:31N 40°28' E 014°14'816.7
2018-Nov-07 07:02N 40°31' E 014°23'816.7
2018-Nov-07 06:32N 40°35' E 014°33'2 0.1
2018-Nov-05 23:30N 40°33' E 014°33'715.7
2018-Nov-05 23:03N 40°29' E 014°25'115.2
2018-Nov-05 23:01N 40°28' E 014°25'815.5
2018-Nov-05 22:30N 40°24' E 014°16'715.8
2018-Nov-05 22:03N 40°20' E 014°09'216.1
2018-Nov-05 21:57N 40°19' E 014°07'1115.9
2018-Nov-05 21:17N 40°14' E 013°54'415.9
2018-Nov-05 21:03N 40°12' E 013°50'16 0.4
2018-Nov-04 01:13N 40°25' E 014°03'316.5
2018-Nov-04 01:03N 40°26' E 014°06'116.8
2018-Nov-04 01:01N 40°26' E 014°07'816.6
2018-Nov-04 00:31N 40°29' E 014°17'716.3
2018-Nov-04 00:03N 40°32' E 014°26'116.2
2018-Nov-04 00:00N 40°33' E 014°27'815.9
2018-Nov-03 23:31N 40°36' E 014°37'3 0.3
2018-Nov-03 13:49N 40°37' E 014°41'516.3
2018-Nov-03 13:30N 40°34' E 014°35'715.9
2018-Nov-03 13:03N 40°30' E 014°27'115.6
2018-Nov-03 13:00N 40°30' E 014°26'815.4
2018-Nov-03 12:30N 40°26' E 014°18'1015.2
2018-Nov-03 11:52N 40°21' E 014°07'6 0.1
2018-Nov-01 20:44N 40°25' E 014°02'416.2
2018-Nov-01 20:30N 40°26' E 014°07'716.5
2018-Nov-01 20:03N 40°29' E 014°16'116.8
2018-Nov-01 20:00N 40°29' E 014°17'816.5
2018-Nov-01 19:30N 40°33' E 014°27'715.7
2018-Nov-01 19:02N 40°35' E 014°36'115.5
2018-Nov-01 19:00N 40°36' E 014°36'3 0.3
2018-Nov-01 08:25N 40°36' E 014°40'515.1
2018-Nov-01 08:03N 40°33' E 014°34'115.0
2018-Nov-01 08:00N 40°32' E 014°33'714.8
2018-Nov-01 07:30N 40°28' E 014°26'614.5
2018-Nov-01 07:04N 40°24' E 014°19'114.2
2018-Nov-01 07:00N 40°24' E 014°18'714.3
2018-Nov-01 06:30N 40°19' E 014°11'  

Dump ship's entire track history